sensor_id;sensor_type;location;lat;lon;timestamp;P1;durP1;ratioP1;P2;durP2;ratioP2
16266;SDS011;8241;48.786;9.250;2023-04-25T00:00:56;2.90;;;2.80;;
16266;SDS011;8241;48.786;9.250;2023-04-25T00:03:24;3.00;;;2.90;;
16266;SDS011;8241;48.786;9.250;2023-04-25T00:05:51;3.37;;;3.27;;
16266;SDS011;8241;48.786;9.250;2023-04-25T00:08:24;2.90;;;2.80;;
16266;SDS011;8241;48.786;9.250;2023-04-25T00:10:51;3.00;;;2.90;;
16266;SDS011;8241;48.786;9.250;2023-04-25T00:13:18;3.00;;;2.90;;
16266;SDS011;8241;48.786;9.250;2023-04-25T00:15:46;3.00;;;2.90;;
16266;SDS011;8241;48.786;9.250;2023-04-25T00:18:14;3.27;;;3.17;;
16266;SDS011;8241;48.786;9.250;2023-04-25T00:20:45;3.00;;;2.90;;
16266;SDS011;8241;48.786;9.250;2023-04-25T00:23:12;3.20;;;3.10;;
16266;SDS011;8241;48.786;9.250;2023-04-25T00:25:42;3.00;;;2.90;;
16266;SDS011;8241;48.786;9.250;2023-04-25T00:28:11;3.13;;;3.03;;
16266;SDS011;8241;48.786;9.250;2023-04-25T00:30:38;2.80;;;2.70;;
16266;SDS011;8241;48.786;9.250;2023-04-25T00:33:06;2.90;;;2.80;;
16266;SDS011;8241;48.786;9.250;2023-04-25T00:35:34;3.00;;;2.90;;
16266;SDS011;8241;48.786;9.250;2023-04-25T00:38:02;2.97;;;2.87;;
16266;SDS011;8241;48.786;9.250;2023-04-25T00:40:29;3.00;;;2.90;;
16266;SDS011;8241;48.786;9.250;2023-04-25T00:42:57;3.30;;;3.20;;
16266;SDS011;8241;48.786;9.250;2023-04-25T00:45:24;2.90;;;2.80;;
16266;SDS011;8241;48.786;9.250;2023-04-25T00:47:55;2.90;;;2.80;;
16266;SDS011;8241;48.786;9.250;2023-04-25T00:50:25;2.90;;;2.80;;
16266;SDS011;8241;48.786;9.250;2023-04-25T00:52:52;3.00;;;2.90;;
16266;SDS011;8241;48.786;9.250;2023-04-25T00:55:29;2.90;;;2.80;;
16266;SDS011;8241;48.786;9.250;2023-04-25T01:00:35;3.10;;;3.00;;
16266;SDS011;8241;48.786;9.250;2023-04-25T01:05:54;3.03;;;2.93;;
16266;SDS011;8241;48.786;9.250;2023-04-25T01:08:23;2.90;;;2.80;;
16266;SDS011;8241;48.786;9.250;2023-04-25T01:10:52;2.97;;;2.87;;
16266;SDS011;8241;48.786;9.250;2023-04-25T01:13:25;3.30;;;3.20;;
16266;SDS011;8241;48.786;9.250;2023-04-25T01:15:52;3.10;;;3.00;;
16266;SDS011;8241;48.786;9.250;2023-04-25T01:18:19;3.00;;;2.90;;
16266;SDS011;8241;48.786;9.250;2023-04-25T01:20:47;3.10;;;3.00;;
16266;SDS011;8241;48.786;9.250;2023-04-25T01:23:20;3.10;;;3.00;;
16266;SDS011;8241;48.786;9.250;2023-04-25T01:25:48;3.70;;;3.50;;
16266;SDS011;8241;48.786;9.250;2023-04-25T01:28:16;3.20;;;3.10;;
16266;SDS011;8241;48.786;9.250;2023-04-25T01:30:43;3.47;;;3.37;;
16266;SDS011;8241;48.786;9.250;2023-04-25T01:33:13;3.23;;;3.13;;
16266;SDS011;8241;48.786;9.250;2023-04-25T01:35:42;3.10;;;3.00;;
16266;SDS011;8241;48.786;9.250;2023-04-25T01:38:10;3.23;;;3.13;;
16266;SDS011;8241;48.786;9.250;2023-04-25T01:40:40;3.10;;;3.00;;
16266;SDS011;8241;48.786;9.250;2023-04-25T01:43:07;3.30;;;3.20;;
16266;SDS011;8241;48.786;9.250;2023-04-25T01:45:36;3.20;;;3.10;;
16266;SDS011;8241;48.786;9.250;2023-04-25T01:48:05;2.90;;;2.80;;
16266;SDS011;8241;48.786;9.250;2023-04-25T01:50:34;3.10;;;3.00;;
16266;SDS011;8241;48.786;9.250;2023-04-25T01:53:02;3.20;;;3.10;;
16266;SDS011;8241;48.786;9.250;2023-04-25T01:55:29;3.20;;;3.10;;
16266;SDS011;8241;48.786;9.250;2023-04-25T01:58:05;3.30;;;3.20;;
16266;SDS011;8241;48.786;9.250;2023-04-25T02:00:59;3.30;;;3.20;;
16266;SDS011;8241;48.786;9.250;2023-04-25T02:03:32;3.27;;;3.17;;
16266;SDS011;8241;48.786;9.250;2023-04-25T02:08:40;3.17;;;3.07;;
16266;SDS011;8241;48.786;9.250;2023-04-25T02:11:09;3.00;;;2.90;;
16266;SDS011;8241;48.786;9.250;2023-04-25T02:13:45;3.50;;;3.40;;
16266;SDS011;8241;48.786;9.250;2023-04-25T02:16:23;3.10;;;3.00;;
16266;SDS011;8241;48.786;9.250;2023-04-25T02:18:50;3.20;;;3.10;;
16266;SDS011;8241;48.786;9.250;2023-04-25T02:21:18;3.00;;;2.90;;
16266;SDS011;8241;48.786;9.250;2023-04-25T02:23:45;3.20;;;3.10;;
16266;SDS011;8241;48.786;9.250;2023-04-25T02:26:14;3.33;;;3.23;;
16266;SDS011;8241;48.786;9.250;2023-04-25T02:28:41;3.00;;;2.90;;
16266;SDS011;8241;48.786;9.250;2023-04-25T02:31:09;3.10;;;3.00;;
16266;SDS011;8241;48.786;9.250;2023-04-25T02:33:36;3.50;;;3.40;;
16266;SDS011;8241;48.786;9.250;2023-04-25T02:36:05;3.60;;;3.30;;
16266;SDS011;8241;48.786;9.250;2023-04-25T02:38:35;3.43;;;3.33;;
16266;SDS011;8241;48.786;9.250;2023-04-25T02:41:04;3.27;;;3.17;;
16266;SDS011;8241;48.786;9.250;2023-04-25T02:43:31;3.30;;;3.20;;
16266;SDS011;8241;48.786;9.250;2023-04-25T02:45:58;3.20;;;3.10;;
16266;SDS011;8241;48.786;9.250;2023-04-25T02:48:26;2.90;;;2.80;;
16266;SDS011;8241;48.786;9.250;2023-04-25T02:50:54;3.43;;;3.23;;
16266;SDS011;8241;48.786;9.250;2023-04-25T02:53:21;3.30;;;3.20;;
16266;SDS011;8241;48.786;9.250;2023-04-25T02:55:53;3.67;;;3.57;;
16266;SDS011;8241;48.786;9.250;2023-04-25T02:58:23;3.00;;;2.90;;
16266;SDS011;8241;48.786;9.250;2023-04-25T03:00:52;3.00;;;2.90;;
16266;SDS011;8241;48.786;9.250;2023-04-25T03:03:19;3.00;;;2.90;;
16266;SDS011;8241;48.786;9.250;2023-04-25T03:05:51;3.13;;;3.03;;
16266;SDS011;8241;48.786;9.250;2023-04-25T03:11:02;2.90;;;2.80;;
16266;SDS011;8241;48.786;9.250;2023-04-25T03:16:05;3.20;;;3.10;;
16266;SDS011;8241;48.786;9.250;2023-04-25T03:18:33;3.00;;;2.90;;
16266;SDS011;8241;48.786;9.250;2023-04-25T03:21:04;3.67;;;3.57;;
16266;SDS011;8241;48.786;9.250;2023-04-25T03:23:31;2.97;;;2.87;;
16266;SDS011;8241;48.786;9.250;2023-04-25T03:25:58;2.93;;;2.83;;
16266;SDS011;8241;48.786;9.250;2023-04-25T03:28:25;3.10;;;3.00;;
16266;SDS011;8241;48.786;9.250;2023-04-25T03:30:56;3.00;;;2.90;;
16266;SDS011;8241;48.786;9.250;2023-04-25T03:33:23;2.80;;;2.70;;
16266;SDS011;8241;48.786;9.250;2023-04-25T03:35:50;3.10;;;3.00;;
16266;SDS011;8241;48.786;9.250;2023-04-25T03:38:19;3.27;;;3.17;;
16266;SDS011;8241;48.786;9.250;2023-04-25T03:40:47;2.90;;;2.80;;
16266;SDS011;8241;48.786;9.250;2023-04-25T03:43:20;2.97;;;2.87;;
16266;SDS011;8241;48.786;9.250;2023-04-25T03:45:58;3.00;;;2.90;;
16266;SDS011;8241;48.786;9.250;2023-04-25T03:48:26;2.90;;;2.80;;
16266;SDS011;8241;48.786;9.250;2023-04-25T03:50:56;2.90;;;2.80;;
16266;SDS011;8241;48.786;9.250;2023-04-25T03:53:24;3.50;;;3.40;;
16266;SDS011;8241;48.786;9.250;2023-04-25T03:56:10;3.00;;;2.90;;
16266;SDS011;8241;48.786;9.250;2023-04-25T03:58:38;3.03;;;2.93;;
16266;SDS011;8241;48.786;9.250;2023-04-25T04:01:06;2.90;;;2.80;;
16266;SDS011;8241;48.786;9.250;2023-04-25T04:03:43;3.20;;;3.10;;
16266;SDS011;8241;48.786;9.250;2023-04-25T04:06:20;3.53;;;3.43;;
16266;SDS011;8241;48.786;9.250;2023-04-25T04:08:55;5.43;;;3.77;;
16266;SDS011;8241;48.786;9.250;2023-04-25T04:11:25;3.30;;;3.20;;
16266;SDS011;8241;48.786;9.250;2023-04-25T04:16:44;3.23;;;3.13;;
16266;SDS011;8241;48.786;9.250;2023-04-25T04:19:11;3.03;;;2.93;;
16266;SDS011;8241;48.786;9.250;2023-04-25T04:21:43;3.20;;;3.10;;
16266;SDS011;8241;48.786;9.250;2023-04-25T04:24:12;3.10;;;3.00;;
16266;SDS011;8241;48.786;9.250;2023-04-25T04:26:59;3.00;;;2.90;;
16266;SDS011;8241;48.786;9.250;2023-04-25T04:29:35;3.47;;;3.33;;
16266;SDS011;8241;48.786;9.250;2023-04-25T04:32:13;2.90;;;2.80;;
16266;SDS011;8241;48.786;9.250;2023-04-25T04:34:41;3.20;;;3.10;;
16266;SDS011;8241;48.786;9.250;2023-04-25T04:37:11;3.20;;;3.10;;
16266;SDS011;8241;48.786;9.250;2023-04-25T04:39:45;3.10;;;3.00;;
16266;SDS011;8241;48.786;9.250;2023-04-25T04:42:28;4.50;;;4.20;;
16266;SDS011;8241;48.786;9.250;2023-04-25T04:45:27;3.17;;;3.07;;
16266;SDS011;8241;48.786;9.250;2023-04-25T04:48:07;3.60;;;3.50;;
16266;SDS011;8241;48.786;9.250;2023-04-25T04:50:55;3.10;;;3.00;;
16266;SDS011;8241;48.786;9.250;2023-04-25T04:53:55;3.20;;;3.10;;
16266;SDS011;8241;48.786;9.250;2023-04-25T04:56:57;3.10;;;3.00;;
16266;SDS011;8241;48.786;9.250;2023-04-25T04:59:40;3.20;;;3.10;;
16266;SDS011;8241;48.786;9.250;2023-04-25T05:02:28;3.10;;;3.00;;
16266;SDS011;8241;48.786;9.250;2023-04-25T05:05:27;3.30;;;3.20;;
16266;SDS011;8241;48.786;9.250;2023-04-25T05:08:12;4.13;;;4.03;;
16266;SDS011;8241;48.786;9.250;2023-04-25T05:11:00;3.70;;;3.60;;
16266;SDS011;8241;48.786;9.250;2023-04-25T05:13:53;3.40;;;3.30;;
16266;SDS011;8241;48.786;9.250;2023-04-25T05:16:42;4.03;;;3.90;;
16266;SDS011;8241;48.786;9.250;2023-04-25T05:19:34;3.60;;;3.50;;
16266;SDS011;8241;48.786;9.250;2023-04-25T05:22:20;3.60;;;3.50;;
16266;SDS011;8241;48.786;9.250;2023-04-25T05:25:06;3.93;;;3.73;;
16266;SDS011;8241;48.786;9.250;2023-04-25T05:28:04;3.50;;;3.40;;
16266;SDS011;8241;48.786;9.250;2023-04-25T05:30:44;3.80;;;3.60;;
16266;SDS011;8241;48.786;9.250;2023-04-25T05:33:18;3.60;;;3.50;;
16266;SDS011;8241;48.786;9.250;2023-04-25T05:35:45;3.10;;;3.00;;
16266;SDS011;8241;48.786;9.250;2023-04-25T05:38:13;3.37;;;3.27;;
16266;SDS011;8241;48.786;9.250;2023-04-25T05:40:59;3.20;;;3.10;;
16266;SDS011;8241;48.786;9.250;2023-04-25T05:43:52;3.97;;;3.53;;
16266;SDS011;8241;48.786;9.250;2023-04-25T05:46:25;3.50;;;3.40;;
16266;SDS011;8241;48.786;9.250;2023-04-25T05:49:11;3.63;;;3.53;;
16266;SDS011;8241;48.786;9.250;2023-04-25T05:51:56;3.20;;;3.10;;
16266;SDS011;8241;48.786;9.250;2023-04-25T05:54:49;3.60;;;3.50;;
16266;SDS011;8241;48.786;9.250;2023-04-25T05:57:21;3.80;;;3.60;;
16266;SDS011;8241;48.786;9.250;2023-04-25T05:59:49;3.43;;;3.33;;
16266;SDS011;8241;48.786;9.250;2023-04-25T06:02:19;3.37;;;3.27;;
16266;SDS011;8241;48.786;9.250;2023-04-25T06:04:50;3.20;;;3.10;;
16266;SDS011;8241;48.786;9.250;2023-04-25T06:07:18;3.20;;;3.10;;
16266;SDS011;8241;48.786;9.250;2023-04-25T06:09:45;3.17;;;3.07;;
16266;SDS011;8241;48.786;9.250;2023-04-25T06:12:12;3.87;;;3.77;;
16266;SDS011;8241;48.786;9.250;2023-04-25T06:14:40;3.13;;;3.03;;
16266;SDS011;8241;48.786;9.250;2023-04-25T06:17:07;3.73;;;3.63;;
16266;SDS011;8241;48.786;9.250;2023-04-25T06:19:36;3.73;;;3.63;;
16266;SDS011;8241;48.786;9.250;2023-04-25T06:22:03;3.60;;;3.50;;
16266;SDS011;8241;48.786;9.250;2023-04-25T06:24:31;3.00;;;2.90;;
16266;SDS011;8241;48.786;9.250;2023-04-25T06:27:02;3.13;;;3.00;;
16266;SDS011;8241;48.786;9.250;2023-04-25T06:29:29;3.43;;;3.33;;
16266;SDS011;8241;48.786;9.250;2023-04-25T06:31:57;4.17;;;3.87;;
16266;SDS011;8241;48.786;9.250;2023-04-25T06:34:27;3.70;;;3.50;;
16266;SDS011;8241;48.786;9.250;2023-04-25T06:36:56;4.20;;;4.00;;
16266;SDS011;8241;48.786;9.250;2023-04-25T06:39:24;2.90;;;2.80;;
16266;SDS011;8241;48.786;9.250;2023-04-25T06:41:51;2.90;;;2.80;;
16266;SDS011;8241;48.786;9.250;2023-04-25T06:44:56;2.90;;;2.80;;
16266;SDS011;8241;48.786;9.250;2023-04-25T06:47:27;2.90;;;2.80;;
16266;SDS011;8241;48.786;9.250;2023-04-25T06:49:54;2.90;;;2.80;;
16266;SDS011;8241;48.786;9.250;2023-04-25T06:52:23;3.30;;;3.20;;
16266;SDS011;8241;48.786;9.250;2023-04-25T06:54:52;2.90;;;2.80;;
16266;SDS011;8241;48.786;9.250;2023-04-25T06:57:41;3.03;;;2.93;;
16266;SDS011;8241;48.786;9.250;2023-04-25T07:00:37;3.10;;;3.00;;
16266;SDS011;8241;48.786;9.250;2023-04-25T07:03:04;2.90;;;2.80;;
16266;SDS011;8241;48.786;9.250;2023-04-25T07:05:31;2.90;;;2.80;;
16266;SDS011;8241;48.786;9.250;2023-04-25T07:08:00;2.80;;;2.70;;
16266;SDS011;8241;48.786;9.250;2023-04-25T07:10:28;2.80;;;2.70;;
16266;SDS011;8241;48.786;9.250;2023-04-25T07:12:56;3.33;;;3.10;;
16266;SDS011;8241;48.786;9.250;2023-04-25T07:15:23;3.07;;;2.97;;
16266;SDS011;8241;48.786;9.250;2023-04-25T07:17:50;2.73;;;2.63;;
16266;SDS011;8241;48.786;9.250;2023-04-25T07:20:17;3.00;;;2.90;;
16266;SDS011;8241;48.786;9.250;2023-04-25T07:22:45;3.30;;;3.20;;
16266;SDS011;8241;48.786;9.250;2023-04-25T07:25:14;3.20;;;3.10;;
16266;SDS011;8241;48.786;9.250;2023-04-25T07:27:41;3.20;;;3.10;;
16266;SDS011;8241;48.786;9.250;2023-04-25T07:30:13;3.17;;;3.07;;
16266;SDS011;8241;48.786;9.250;2023-04-25T07:32:40;3.20;;;3.10;;
16266;SDS011;8241;48.786;9.250;2023-04-25T07:35:07;2.97;;;2.87;;
16266;SDS011;8241;48.786;9.250;2023-04-25T07:37:35;2.90;;;2.80;;
16266;SDS011;8241;48.786;9.250;2023-04-25T07:40:16;3.10;;;3.00;;
16266;SDS011;8241;48.786;9.250;2023-04-25T07:42:47;3.40;;;3.30;;
16266;SDS011;8241;48.786;9.250;2023-04-25T07:45:19;3.30;;;3.20;;
16266;SDS011;8241;48.786;9.250;2023-04-25T07:47:46;3.07;;;2.97;;
16266;SDS011;8241;48.786;9.250;2023-04-25T07:50:13;3.10;;;3.00;;
16266;SDS011;8241;48.786;9.250;2023-04-25T07:52:40;3.00;;;2.90;;
16266;SDS011;8241;48.786;9.250;2023-04-25T07:55:19;3.10;;;3.00;;
16266;SDS011;8241;48.786;9.250;2023-04-25T07:57:58;3.03;;;2.93;;
16266;SDS011;8241;48.786;9.250;2023-04-25T08:00:28;3.77;;;3.57;;
16266;SDS011;8241;48.786;9.250;2023-04-25T08:03:15;3.00;;;2.90;;
16266;SDS011;8241;48.786;9.250;2023-04-25T08:05:42;3.80;;;3.60;;
16266;SDS011;8241;48.786;9.250;2023-04-25T08:08:11;3.13;;;3.03;;
16266;SDS011;8241;48.786;9.250;2023-04-25T08:10:41;2.80;;;2.70;;
16266;SDS011;8241;48.786;9.250;2023-04-25T08:13:08;2.90;;;2.80;;
16266;SDS011;8241;48.786;9.250;2023-04-25T08:15:36;3.20;;;3.10;;
16266;SDS011;8241;48.786;9.250;2023-04-25T08:18:06;3.00;;;2.90;;
16266;SDS011;8241;48.786;9.250;2023-04-25T08:20:33;2.70;;;2.60;;
16266;SDS011;8241;48.786;9.250;2023-04-25T08:23:03;2.90;;;2.80;;
16266;SDS011;8241;48.786;9.250;2023-04-25T08:25:48;2.90;;;2.80;;
16266;SDS011;8241;48.786;9.250;2023-04-25T08:28:18;2.90;;;2.80;;
16266;SDS011;8241;48.786;9.250;2023-04-25T08:30:46;2.90;;;2.80;;
16266;SDS011;8241;48.786;9.250;2023-04-25T08:33:14;2.97;;;2.87;;
16266;SDS011;8241;48.786;9.250;2023-04-25T08:35:59;3.20;;;3.03;;
16266;SDS011;8241;48.786;9.250;2023-04-25T08:38:27;3.70;;;3.57;;
16266;SDS011;8241;48.786;9.250;2023-04-25T08:40:56;2.90;;;2.80;;
16266;SDS011;8241;48.786;9.250;2023-04-25T08:43:26;3.30;;;3.20;;
16266;SDS011;8241;48.786;9.250;2023-04-25T08:45:56;2.80;;;2.70;;
16266;SDS011;8241;48.786;9.250;2023-04-25T08:48:42;2.90;;;2.80;;
16266;SDS011;8241;48.786;9.250;2023-04-25T08:51:12;2.97;;;2.87;;
16266;SDS011;8241;48.786;9.250;2023-04-25T08:53:49;2.93;;;2.83;;
16266;SDS011;8241;48.786;9.250;2023-04-25T08:56:20;2.70;;;2.60;;
16266;SDS011;8241;48.786;9.250;2023-04-25T08:58:49;2.90;;;2.80;;
16266;SDS011;8241;48.786;9.250;2023-04-25T09:01:16;3.00;;;2.90;;
16266;SDS011;8241;48.786;9.250;2023-04-25T09:03:49;2.83;;;2.73;;
16266;SDS011;8241;48.786;9.250;2023-04-25T09:06:17;2.80;;;2.70;;
16266;SDS011;8241;48.786;9.250;2023-04-25T09:08:49;2.90;;;2.80;;
16266;SDS011;8241;48.786;9.250;2023-04-25T09:11:16;2.73;;;2.63;;
16266;SDS011;8241;48.786;9.250;2023-04-25T09:13:48;3.63;;;3.53;;
16266;SDS011;8241;48.786;9.250;2023-04-25T09:16:22;3.20;;;3.10;;
16266;SDS011;8241;48.786;9.250;2023-04-25T09:19:20;3.00;;;2.90;;
16266;SDS011;8241;48.786;9.250;2023-04-25T09:21:49;2.70;;;2.60;;
16266;SDS011;8241;48.786;9.250;2023-04-25T09:24:18;3.23;;;3.13;;
16266;SDS011;8241;48.786;9.250;2023-04-25T09:26:55;3.13;;;3.03;;
16266;SDS011;8241;48.786;9.250;2023-04-25T09:29:29;2.50;;;2.40;;
16266;SDS011;8241;48.786;9.250;2023-04-25T09:34:42;2.33;;;2.23;;
16266;SDS011;8241;48.786;9.250;2023-04-25T09:37:16;2.43;;;2.33;;
16266;SDS011;8241;48.786;9.250;2023-04-25T09:40:07;2.40;;;2.30;;
16266;SDS011;8241;48.786;9.250;2023-04-25T09:42:53;2.70;;;2.50;;
16266;SDS011;8241;48.786;9.250;2023-04-25T09:45:21;3.60;;;3.30;;
16266;SDS011;8241;48.786;9.250;2023-04-25T09:47:50;2.90;;;2.80;;
16266;SDS011;8241;48.786;9.250;2023-04-25T09:50:26;2.40;;;2.30;;
16266;SDS011;8241;48.786;9.250;2023-04-25T09:53:02;2.43;;;2.23;;
16266;SDS011;8241;48.786;9.250;2023-04-25T09:55:42;2.30;;;2.20;;
16266;SDS011;8241;48.786;9.250;2023-04-25T09:58:12;2.30;;;2.20;;
16266;SDS011;8241;48.786;9.250;2023-04-25T10:00:43;2.10;;;2.10;;
16266;SDS011;8241;48.786;9.250;2023-04-25T10:03:23;2.97;;;2.73;;
16266;SDS011;8241;48.786;9.250;2023-04-25T10:06:07;2.30;;;2.20;;
16266;SDS011;8241;48.786;9.250;2023-04-25T10:08:37;2.00;;;2.00;;
16266;SDS011;8241;48.786;9.250;2023-04-25T10:11:06;2.00;;;2.00;;
16266;SDS011;8241;48.786;9.250;2023-04-25T10:13:35;0.50;;;0.50;;
16266;SDS011;8241;48.786;9.250;2023-04-25T10:16:04;0.30;;;0.30;;
16266;SDS011;8241;48.786;9.250;2023-04-25T10:18:32;0.37;;;0.37;;
16266;SDS011;8241;48.786;9.250;2023-04-25T10:21:00;1.37;;;0.70;;
16266;SDS011;8241;48.786;9.250;2023-04-25T10:23:29;0.30;;;0.30;;
16266;SDS011;8241;48.786;9.250;2023-04-25T10:25:57;0.80;;;0.80;;
16266;SDS011;8241;48.786;9.250;2023-04-25T10:28:25;0.33;;;0.33;;
16266;SDS011;8241;48.786;9.250;2023-04-25T10:30:57;0.30;;;0.30;;
16266;SDS011;8241;48.786;9.250;2023-04-25T10:33:35;0.30;;;0.30;;
16266;SDS011;8241;48.786;9.250;2023-04-25T10:36:10;0.40;;;0.40;;
16266;SDS011;8241;48.786;9.250;2023-04-25T10:38:38;0.30;;;0.30;;
16266;SDS011;8241;48.786;9.250;2023-04-25T10:41:07;0.40;;;0.40;;
16266;SDS011;8241;48.786;9.250;2023-04-25T10:43:35;0.40;;;0.40;;
16266;SDS011;8241;48.786;9.250;2023-04-25T10:46:12;0.50;;;0.50;;
16266;SDS011;8241;48.786;9.250;2023-04-25T10:48:45;0.30;;;0.30;;
16266;SDS011;8241;48.786;9.250;2023-04-25T10:51:16;0.37;;;0.37;;
16266;SDS011;8241;48.786;9.250;2023-04-25T10:53:46;0.60;;;0.60;;
16266;SDS011;8241;48.786;9.250;2023-04-25T10:56:16;0.37;;;0.37;;
16266;SDS011;8241;48.786;9.250;2023-04-25T10:58:44;0.30;;;0.30;;
16266;SDS011;8241;48.786;9.250;2023-04-25T11:01:12;0.30;;;0.30;;
16266;SDS011;8241;48.786;9.250;2023-04-25T11:03:40;0.30;;;0.30;;
16266;SDS011;8241;48.786;9.250;2023-04-25T11:06:16;0.30;;;0.30;;
16266;SDS011;8241;48.786;9.250;2023-04-25T11:08:49;0.67;;;0.67;;
16266;SDS011;8241;48.786;9.250;2023-04-25T11:11:17;0.50;;;0.50;;
16266;SDS011;8241;48.786;9.250;2023-04-25T11:13:47;1.37;;;0.80;;
16266;SDS011;8241;48.786;9.250;2023-04-25T11:16:15;0.43;;;0.43;;
16266;SDS011;8241;48.786;9.250;2023-04-25T11:18:42;0.50;;;0.50;;
16266;SDS011;8241;48.786;9.250;2023-04-25T11:21:09;0.50;;;0.50;;
16266;SDS011;8241;48.786;9.250;2023-04-25T11:23:40;0.50;;;0.50;;
16266;SDS011;8241;48.786;9.250;2023-04-25T11:26:12;0.30;;;0.30;;
16266;SDS011;8241;48.786;9.250;2023-04-25T11:28:41;0.30;;;0.30;;
16266;SDS011;8241;48.786;9.250;2023-04-25T11:31:12;0.30;;;0.30;;
16266;SDS011;8241;48.786;9.250;2023-04-25T11:33:39;0.47;;;0.47;;
16266;SDS011;8241;48.786;9.250;2023-04-25T11:36:11;0.30;;;0.30;;
16266;SDS011;8241;48.786;9.250;2023-04-25T11:38:38;0.30;;;0.30;;
16266;SDS011;8241;48.786;9.250;2023-04-25T11:41:05;0.30;;;0.30;;
16266;SDS011;8241;48.786;9.250;2023-04-25T11:43:32;0.50;;;0.50;;
16266;SDS011;8241;48.786;9.250;2023-04-25T11:45:59;0.37;;;0.37;;
16266;SDS011;8241;48.786;9.250;2023-04-25T11:48:26;0.30;;;0.30;;
16266;SDS011;8241;48.786;9.250;2023-04-25T11:50:55;0.93;;;0.90;;
16266;SDS011;8241;48.786;9.250;2023-04-25T11:53:23;0.60;;;0.60;;
16266;SDS011;8241;48.786;9.250;2023-04-25T11:55:53;0.30;;;0.30;;
16266;SDS011;8241;48.786;9.250;2023-04-25T11:58:21;0.30;;;0.30;;
16266;SDS011;8241;48.786;9.250;2023-04-25T12:00:49;0.70;;;0.70;;
16266;SDS011;8241;48.786;9.250;2023-04-25T12:03:17;0.40;;;0.40;;
16266;SDS011;8241;48.786;9.250;2023-04-25T12:05:45;0.30;;;0.30;;
16266;SDS011;8241;48.786;9.250;2023-04-25T12:08:17;0.47;;;0.47;;
16266;SDS011;8241;48.786;9.250;2023-04-25T12:10:48;0.57;;;0.50;;
16266;SDS011;8241;48.786;9.250;2023-04-25T12:13:21;0.40;;;0.40;;
16266;SDS011;8241;48.786;9.250;2023-04-25T12:15:51;0.40;;;0.40;;
16266;SDS011;8241;48.786;9.250;2023-04-25T12:18:23;0.33;;;0.33;;
16266;SDS011;8241;48.786;9.250;2023-04-25T12:20:55;0.60;;;0.60;;
16266;SDS011;8241;48.786;9.250;2023-04-25T12:23:28;0.73;;;0.73;;
16266;SDS011;8241;48.786;9.250;2023-04-25T12:25:56;0.60;;;0.60;;
16266;SDS011;8241;48.786;9.250;2023-04-25T12:28:25;0.50;;;0.50;;
16266;SDS011;8241;48.786;9.250;2023-04-25T12:31:02;0.50;;;0.50;;
16266;SDS011;8241;48.786;9.250;2023-04-25T12:33:32;0.70;;;0.70;;
16266;SDS011;8241;48.786;9.250;2023-04-25T12:36:01;0.73;;;0.73;;
16266;SDS011;8241;48.786;9.250;2023-04-25T12:38:36;0.90;;;0.90;;
16266;SDS011;8241;48.786;9.250;2023-04-25T12:41:07;1.07;;;1.07;;
16266;SDS011;8241;48.786;9.250;2023-04-25T12:43:34;1.00;;;1.00;;
16266;SDS011;8241;48.786;9.250;2023-04-25T12:46:03;1.20;;;1.20;;
16266;SDS011;8241;48.786;9.250;2023-04-25T12:48:31;1.27;;;1.27;;
16266;SDS011;8241;48.786;9.250;2023-04-25T12:50:59;1.20;;;1.20;;
16266;SDS011;8241;48.786;9.250;2023-04-25T12:53:26;1.00;;;1.00;;
16266;SDS011;8241;48.786;9.250;2023-04-25T12:55:53;1.33;;;1.33;;
16266;SDS011;8241;48.786;9.250;2023-04-25T12:58:22;1.00;;;1.00;;
16266;SDS011;8241;48.786;9.250;2023-04-25T13:00:50;1.00;;;1.00;;
16266;SDS011;8241;48.786;9.250;2023-04-25T13:03:18;0.83;;;0.83;;
16266;SDS011;8241;48.786;9.250;2023-04-25T13:05:46;0.53;;;0.53;;
16266;SDS011;8241;48.786;9.250;2023-04-25T13:08:13;0.67;;;0.67;;
16266;SDS011;8241;48.786;9.250;2023-04-25T13:10:40;0.53;;;0.53;;
16266;SDS011;8241;48.786;9.250;2023-04-25T13:13:07;0.83;;;0.83;;
16266;SDS011;8241;48.786;9.250;2023-04-25T13:15:37;0.50;;;0.50;;
16266;SDS011;8241;48.786;9.250;2023-04-25T13:18:04;1.73;;;1.13;;
16266;SDS011;8241;48.786;9.250;2023-04-25T13:20:31;0.90;;;0.90;;
